createdAt,value
2023-05-19T00:04:25.893Z,2.60
2023-05-19T00:09:36.714Z,2.80
2023-05-19T00:14:45.942Z,2.80
2023-05-19T00:19:50.120Z,3.47
2023-05-19T00:25:00.203Z,2.70
2023-05-19T00:30:10.046Z,2.83
2023-05-19T00:35:18.872Z,2.67
2023-05-19T00:40:31.790Z,3.28
2023-05-19T00:45:41.756Z,3.03
2023-05-19T00:50:46.631Z,2.85
2023-05-19T00:55:51.892Z,3.30
2023-05-19T01:01:03.837Z,3.10
2023-05-19T01:06:13.403Z,2.72
2023-05-19T01:11:18.489Z,2.70
2023-05-19T01:16:32.559Z,3.40
2023-05-19T01:22:15.404Z,3.40
2023-05-19T01:27:47.696Z,4.03
2023-05-19T01:33:01.994Z,2.95
2023-05-19T01:38:13.953Z,2.83
2023-05-19T01:43:26.480Z,3.35
2023-05-19T01:48:37.919Z,3.60
2023-05-19T01:53:46.738Z,3.72
2023-05-19T01:58:54.764Z,3.60
2023-05-19T02:04:18.544Z,3.60
2023-05-19T02:09:26.570Z,3.28
2023-05-19T02:14:34.955Z,3.72
2023-05-19T02:19:45.364Z,3.80
2023-05-19T02:24:51.657Z,3.70
2023-05-19T02:29:55.675Z,3.45
2023-05-19T02:35:06.673Z,3.35
2023-05-19T02:40:11.062Z,4.30
2023-05-19T02:45:15.805Z,4.10
2023-05-19T02:50:25.965Z,4.00
2023-05-19T02:55:34.728Z,3.73
2023-05-19T03:00:45.226Z,3.70
2023-05-19T03:05:55.600Z,4.85
2023-05-19T03:10:59.336Z,4.57
2023-05-19T03:16:08.456Z,4.40
2023-05-19T03:21:13.739Z,3.75
2023-05-19T03:26:17.564Z,4.20
2023-05-19T03:31:27.351Z,3.97
2023-05-19T03:36:39.872Z,3.80
2023-05-19T03:41:53.434Z,4.20
2023-05-19T03:46:57.384Z,4.53
2023-05-19T03:52:13.432Z,4.35
2023-05-19T03:57:48.719Z,4.80
2023-05-19T04:02:57.537Z,4.85
2023-05-19T04:08:02.747Z,4.28
2023-05-19T04:13:06.507Z,4.70
2023-05-19T04:18:15.245Z,3.83
2023-05-19T04:23:25.501Z,4.20
2023-05-19T04:28:36.719Z,4.23
2023-05-19T04:33:46.098Z,4.10
2023-05-19T04:38:54.842Z,4.43
2023-05-19T04:44:07.574Z,4.22
2023-05-19T04:49:16.654Z,4.57
2023-05-19T04:54:21.887Z,3.72
2023-05-19T04:59:30.919Z,5.10
2023-05-19T05:04:34.754Z,4.28
2023-05-19T05:09:45.425Z,4.40
2023-05-19T05:14:49.784Z,4.25
2023-05-19T05:20:00.159Z,4.13
2023-05-19T05:25:12.873Z,4.25
2023-05-19T05:30:16.716Z,4.00
2023-05-19T05:35:23.591Z,4.20
2023-05-19T05:40:28.985Z,3.97
2023-05-19T05:45:33.036Z,3.47
2023-05-19T05:50:44.706Z,4.55
2023-05-19T05:55:51.289Z,3.50
2023-05-19T06:01:02.930Z,3.55
2023-05-19T06:06:12.733Z,4.20
2023-05-19T06:16:35.731Z,3.72
2023-05-19T06:21:44.745Z,4.07
2023-05-19T06:26:50.551Z,3.15
2023-05-19T06:31:56.385Z,3.25
2023-05-19T06:37:02.358Z,3.30
2023-05-19T06:42:13.867Z,3.28
2023-05-19T06:47:44.581Z,3.80
2023-05-19T06:52:53.606Z,3.70
2023-05-19T06:57:59.018Z,3.25
2023-05-19T07:03:03.015Z,3.15
2023-05-19T07:08:11.995Z,2.75
2023-05-19T07:13:24.372Z,2.75
2023-05-19T07:18:31.928Z,2.45
2023-05-19T07:23:41.129Z,2.72
2023-05-19T07:28:51.984Z,2.35
2023-05-19T07:33:55.881Z,2.70
2023-05-19T07:38:59.615Z,2.60
2023-05-19T07:44:10.440Z,2.90
2023-05-19T07:49:19.228Z,3.30
2023-05-19T07:54:28.058Z,3.38
2023-05-19T07:59:38.208Z,3.80
2023-05-19T08:04:42.025Z,3.90
2023-05-19T08:09:45.842Z,2.70
2023-05-19T08:14:51.235Z,3.72
2023-05-19T08:20:00.444Z,2.85
2023-05-19T08:25:06.164Z,2.40
2023-05-19T08:30:12.711Z,2.80
2023-05-19T08:35:16.473Z,2.85
2023-05-19T08:40:27.271Z,2.63
2023-05-19T08:45:34.741Z,3.25
2023-05-19T08:50:42.583Z,2.50
2023-05-19T08:56:01.512Z,2.38
2023-05-19T09:01:12.052Z,2.83
2023-05-19T09:06:16.415Z,3.00
2023-05-19T09:11:25.328Z,3.00
2023-05-19T09:16:35.821Z,3.53
2023-05-19T09:21:45.893Z,3.15
2023-05-19T09:26:49.710Z,3.22
2023-05-19T09:32:00.892Z,2.72
2023-05-19T09:37:05.217Z,2.83
2023-05-19T09:42:15.379Z,2.70
2023-05-19T09:47:25.938Z,3.33
2023-05-19T09:52:36.958Z,2.95
2023-05-19T09:57:41.777Z,2.85
2023-05-19T10:02:52.272Z,2.80
2023-05-19T10:08:02.927Z,2.42
2023-05-19T10:13:13.249Z,2.28
2023-05-19T10:18:19.303Z,2.33
2023-05-19T10:23:28.320Z,2.50
2023-05-19T10:28:40.564Z,2.10
2023-05-19T10:34:06.640Z,2.47
2023-05-19T10:39:20.481Z,2.33
2023-05-19T10:44:35.816Z,2.70
2023-05-19T10:49:46.777Z,3.10
2023-05-19T10:54:51.508Z,3.70
2023-05-19T10:59:56.988Z,3.75
2023-05-19T11:05:11.059Z,3.17
2023-05-19T11:10:15.016Z,3.08
2023-05-19T11:15:27.467Z,3.08
2023-05-19T11:20:40.228Z,2.88
2023-05-19T11:25:45.738Z,3.45
2023-05-19T11:30:57.739Z,3.35
2023-05-19T11:36:09.511Z,3.58
2023-05-19T11:41:19.492Z,3.05
2023-05-19T11:46:29.727Z,3.20
2023-05-19T11:51:35.070Z,3.13
2023-05-19T11:56:44.408Z,3.45
2023-05-19T12:01:53.207Z,3.47
2023-05-19T12:06:58.614Z,3.35
2023-05-19T12:12:07.551Z,3.35
2023-05-19T12:17:19.545Z,3.27
2023-05-19T12:22:29.865Z,3.58
2023-05-19T12:27:37.262Z,3.58
2023-05-19T12:32:41.104Z,3.03
2023-05-19T12:37:53.233Z,2.67
2023-05-19T12:43:02.071Z,2.65
2023-05-19T12:48:15.860Z,2.27
2023-05-19T12:53:28.277Z,2.72
2023-05-19T12:58:38.921Z,3.15
2023-05-19T13:03:47.796Z,2.60
2023-05-19T13:08:58.582Z,2.65
2023-05-19T13:14:07.441Z,3.05
2023-05-19T13:19:25.454Z,2.28
2023-05-19T13:24:36.237Z,2.90
2023-05-19T13:29:45.173Z,2.50
2023-05-19T13:34:49.035Z,2.70
2023-05-19T13:39:54.332Z,2.72
2023-05-19T13:44:58.175Z,2.85
2023-05-19T13:50:08.077Z,3.50
2023-05-19T13:55:19.019Z,2.65
2023-05-19T14:00:27.781Z,3.05
2023-05-19T14:05:37.422Z,2.93
2023-05-19T14:10:43.365Z,2.67
2023-05-19T14:15:52.247Z,2.25
2023-05-19T14:21:01.084Z,2.38
2023-05-19T14:26:11.332Z,1.92
2023-05-19T14:31:20.153Z,2.28
2023-05-19T14:36:24.451Z,2.40
2023-05-19T14:41:34.670Z,1.83
2023-05-19T14:46:38.443Z,1.98
2023-05-19T14:51:42.223Z,2.38
2023-05-19T14:56:52.421Z,2.07
2023-05-19T15:01:56.267Z,2.25
2023-05-19T15:07:10.134Z,1.88
2023-05-19T15:12:21.129Z,1.90
2023-05-19T15:17:29.968Z,1.85
2023-05-19T15:22:38.802Z,1.83
2023-05-19T15:32:57.581Z,1.95
2023-05-19T15:38:06.379Z,2.05
2023-05-19T15:43:11.640Z,2.40
2023-05-19T15:48:20.353Z,2.30
2023-05-19T15:53:29.197Z,2.53
2023-05-19T15:58:39.339Z,2.30
2023-05-19T16:03:48.413Z,2.65
2023-05-19T16:08:52.194Z,2.28
2023-05-19T16:14:02.366Z,2.53
2023-05-19T16:19:11.266Z,2.50
2023-05-19T16:24:15.057Z,2.22
2023-05-19T16:29:25.376Z,2.20
2023-05-19T16:34:34.106Z,2.20
2023-05-19T16:39:43.804Z,2.77
2023-05-19T16:44:54.144Z,2.53
2023-05-19T16:50:02.908Z,2.00
2023-05-19T16:55:12.259Z,2.40
2023-05-19T17:00:22.665Z,2.45
2023-05-19T17:05:32.063Z,2.40
2023-05-19T17:10:40.811Z,2.58
2023-05-19T17:15:52.953Z,4.60
2023-05-19T17:21:04.039Z,2.97
2023-05-19T17:26:07.914Z,3.15
2023-05-19T17:31:18.075Z,3.53
2023-05-19T17:36:22.018Z,3.22
2023-05-19T17:41:32.108Z,3.00
2023-05-19T17:46:39.254Z,3.00
2023-05-19T17:51:49.880Z,2.92
2023-05-19T17:56:59.946Z,3.50
2023-05-19T18:02:05.891Z,3.70
2023-05-19T18:07:16.530Z,3.80
2023-05-19T18:12:21.368Z,3.28
2023-05-19T18:17:31.574Z,3.50
2023-05-19T18:27:49.125Z,4.35
2023-05-19T18:32:54.318Z,4.20
2023-05-19T18:37:58.376Z,3.83
2023-05-19T18:43:09.800Z,4.22
2023-05-19T18:48:15.504Z,4.68
2023-05-19T18:53:19.357Z,5.50
2023-05-19T18:58:23.103Z,5.47
2023-05-19T19:03:28.972Z,5.65
2023-05-19T19:08:39.078Z,5.85
2023-05-19T19:13:51.203Z,6.10
2023-05-19T19:19:01.555Z,5.60
2023-05-19T19:24:06.009Z,5.90
2023-05-19T19:29:16.701Z,5.65
2023-05-19T19:39:35.385Z,6.18
2023-05-19T19:44:39.312Z,5.57
2023-05-19T19:49:50.214Z,6.03
2023-05-19T19:54:54.001Z,6.30
2023-05-19T20:00:08.041Z,5.97
2023-05-19T20:05:13.673Z,6.47
2023-05-19T20:10:17.621Z,6.55
2023-05-19T20:15:26.809Z,6.60
2023-05-19T20:20:37.066Z,6.65
2023-05-19T20:25:58.968Z,5.50
2023-05-19T20:31:11.678Z,6.03
2023-05-19T20:36:16.972Z,6.82
2023-05-19T20:41:25.929Z,5.75
2023-05-19T20:46:29.853Z,5.80
2023-05-19T20:51:35.113Z,6.60
2023-05-19T20:56:38.949Z,5.97
2023-05-19T21:01:47.709Z,6.30
2023-05-19T21:06:53.123Z,5.65
2023-05-19T21:12:02.105Z,6.22
2023-05-19T21:17:07.167Z,5.88
2023-05-19T21:22:17.614Z,5.70
2023-05-19T21:27:26.481Z,6.07
2023-05-19T21:32:35.402Z,5.63
2023-05-19T21:37:40.610Z,6.13
2023-05-19T21:42:49.395Z,6.50
2023-05-19T21:47:53.216Z,6.03
2023-05-19T21:53:03.452Z,6.20
2023-05-19T21:58:07.259Z,6.75
2023-05-19T22:03:16.075Z,7.18
2023-05-19T22:08:22.353Z,6.55
2023-05-19T22:13:26.406Z,7.38
2023-05-19T22:18:35.396Z,7.40
2023-05-19T22:23:45.600Z,7.85
2023-05-19T22:28:54.906Z,6.57
2023-05-19T22:34:03.690Z,7.25
2023-05-19T22:39:13.803Z,7.43
2023-05-19T22:44:22.477Z,7.63
2023-05-19T22:49:31.172Z,7.35
2023-05-19T22:54:36.422Z,7.93
2023-05-19T22:59:41.121Z,8.27
2023-05-19T23:04:50.019Z,7.57
2023-05-19T23:09:55.146Z,8.23
2023-05-19T23:15:04.597Z,8.82
2023-05-19T23:20:09.143Z,9.00
2023-05-19T23:25:19.451Z,9.23
2023-05-19T23:30:23.221Z,9.00
2023-05-19T23:35:27.095Z,8.80
2023-05-19T23:40:32.275Z,8.30
2023-05-19T23:45:41.091Z,8.37
2023-05-19T23:50:45.232Z,7.78
2023-05-19T23:55:51.392Z,8.52
